Plaia De Esteiro — EAUV — position and weather

sailwx.info

Track history (hours):
 
Tides and Currents Weather Stations Pressure Air Temp Water Temp Dewpoint Dewpoint Depression Visibility Wind Speed Wind Dir Waves Ship Positions

Plaia De Esteiro

Last reported at 2018-Apr-30 02:55 UTC. Time now 2018-Jun-24 20:41 UTC.
Position N 43°49' W 007°41'.
Warning: this ship's position is 55 days out of date.

Length 30 m.

Type: Ship. MMSI: 224050990.

Date/timePositionNaut miles runAvg speedWind from/ knotsBaromVisibWave heightAir tempDewpointWater temp
2018-Apr-30 02:55N 43°49' W 007°41'3 8.4
2018-Apr-30 02:30N 43°47' W 007°38'4 8.5
2018-Apr-30 02:01N 43°43' W 007°36'2 3.8
2018-Apr-30 01:30N 43°41' W 007°36'0 0.0
2018-Apr-30 01:00N 43°41' W 007°36'  
2018-Apr-27 20:34N 43°41' W 007°36'0 0.1
2018-Apr-27 20:30N 43°41' W 007°36'0 0.0
2018-Apr-27 20:00N 43°41' W 007°36'0 0.2
2018-Apr-27 19:30N 43°41' W 007°36'0 0.2
2018-Apr-27 19:00N 43°41' W 007°36'0 0.5
2018-Apr-27 18:30N 43°41' W 007°36'5 9.3
2018-Apr-27 18:00N 43°45' W 007°37'7 2.0
2018-Apr-27 14:47N 43°51' W 007°42'2 8.4
2018-Apr-27 14:30N 43°50' W 007°39'1 1.3
2018-Apr-27 14:00N 43°49' W 007°39'2 3.1
2018-Apr-27 13:30N 43°48' W 007°37'2 3.8
2018-Apr-27 13:00N 43°48' W 007°34'2 3.8
2018-Apr-27 12:30N 43°48' W 007°32'2 3.8
2018-Apr-27 12:00N 43°47' W 007°29'2 3.8
2018-Apr-27 11:30N 43°46' W 007°27'3 0.4
2018-Apr-27 02:48N 43°45' W 007°30'2 5.4
2018-Apr-27 02:30N 43°45' W 007°33'3 5.7
2018-Apr-27 02:00N 43°43' W 007°36'2 3.7
2018-Apr-27 01:30N 43°41' W 007°36'0 0.0
2018-Apr-27 01:00N 43°41' W 007°36'0 0.0
2018-Apr-27 00:30N 43°41' W 007°36'0 0.0
2018-Apr-26 23:58N 43°41' W 007°36'0 0.0
2018-Apr-26 23:30N 43°41' W 007°36'0 0.0
2018-Apr-26 23:00N 43°41' W 007°36'0 0.0
2018-Apr-26 22:30N 43°41' W 007°36'0 0.4
2018-Apr-26 22:00N 43°41' W 007°36'0 0.0
2018-Apr-26 21:30N 43°41' W 007°36'0 0.0
2018-Apr-26 21:00N 43°41' W 007°36'0 0.0
2018-Apr-26 20:30N 43°41' W 007°36'2 3.0
2018-Apr-26 20:00N 43°42' W 007°36'4 7.7
2018-Apr-26 19:30N 43°45' W 007°32'80 1.7
2018-Apr-24 19:29N 43°33' W 005°42'0 0.2
2018-Apr-24 19:00N 43°33' W 005°42'0 0.0
2018-Apr-24 18:30N 43°33' W 005°42'3 4.5
2018-Apr-24 17:57N 43°36' W 005°40'2 4.3
2018-Apr-24 17:30N 43°38' W 005°40'  
Track history (hours):
 
Tides and Currents Weather Stations Pressure Air Temp Water Temp Dewpoint Dewpoint Depression Visibility Wind Speed Wind Dir Waves Ship Positions

Plaia De Esteiro

Last reported at 2018-Apr-30 02:55 UTC. Time now 2018-Jun-24 20:41 UTC.
Position N 43°49' W 007°41'.
Warning: this ship's position is 55 days out of date.

Length 30 m.

Type: Ship. MMSI: 224050990.

Date/timePositionNaut miles runAvg speedWind from/ knotsBaromVisibWave heightAir tempDewpointWater temp
2018-Apr-30 02:55N 43°49' W 007°41'3 8.4
2018-Apr-30 02:30N 43°47' W 007°38'4 8.5
2018-Apr-30 02:01N 43°43' W 007°36'2 3.8
2018-Apr-30 01:30N 43°41' W 007°36'0 0.0
2018-Apr-30 01:00N 43°41' W 007°36'  
2018-Apr-27 20:34N 43°41' W 007°36'0 0.1
2018-Apr-27 20:30N 43°41' W 007°36'0 0.0
2018-Apr-27 20:00N 43°41' W 007°36'0 0.2
2018-Apr-27 19:30N 43°41' W 007°36'0 0.2
2018-Apr-27 19:00N 43°41' W 007°36'0 0.5
2018-Apr-27 18:30N 43°41' W 007°36'5 9.3
2018-Apr-27 18:00N 43°45' W 007°37'7 2.0
2018-Apr-27 14:47N 43°51' W 007°42'2 8.4
2018-Apr-27 14:30N 43°50' W 007°39'1 1.3
2018-Apr-27 14:00N 43°49' W 007°39'2 3.1
2018-Apr-27 13:30N 43°48' W 007°37'2 3.8
2018-Apr-27 13:00N 43°48' W 007°34'2 3.8
2018-Apr-27 12:30N 43°48' W 007°32'2 3.8
2018-Apr-27 12:00N 43°47' W 007°29'2 3.8
2018-Apr-27 11:30N 43°46' W 007°27'3 0.4
2018-Apr-27 02:48N 43°45' W 007°30'2 5.4
2018-Apr-27 02:30N 43°45' W 007°33'3 5.7
2018-Apr-27 02:00N 43°43' W 007°36'2 3.7
2018-Apr-27 01:30N 43°41' W 007°36'0 0.0
2018-Apr-27 01:00N 43°41' W 007°36'0 0.0
2018-Apr-27 00:30N 43°41' W 007°36'0 0.0
2018-Apr-26 23:58N 43°41' W 007°36'0 0.0
2018-Apr-26 23:30N 43°41' W 007°36'0 0.0
2018-Apr-26 23:00N 43°41' W 007°36'0 0.0
2018-Apr-26 22:30N 43°41' W 007°36'0 0.4
2018-Apr-26 22:00N 43°41' W 007°36'0 0.0
2018-Apr-26 21:30N 43°41' W 007°36'0 0.0
2018-Apr-26 21:00N 43°41' W 007°36'0 0.0
2018-Apr-26 20:30N 43°41' W 007°36'2 3.0
2018-Apr-26 20:00N 43°42' W 007°36'4 7.7
2018-Apr-26 19:30N 43°45' W 007°32'80 1.7
2018-Apr-24 19:29N 43°33' W 005°42'0 0.2
2018-Apr-24 19:00N 43°33' W 005°42'0 0.0
2018-Apr-24 18:30N 43°33' W 005°42'3 4.5
2018-Apr-24 17:57N 43°36' W 005°40'2 4.3
2018-Apr-24 17:30N 43°38' W 005°40'  

Dump ship's entire track history